Southeast Iowa Regional Airport
KBRL : now visible

Airfield :











YOU CAN JOIN US ON...

 
LOGIN :

Register | Disclaimer

   EN    FR    IT 

 









Legend :    VFR   Marginal VFR   IFR   Intensive IFR   Very Intensive IFR
Visi :
Ceiling :
>= 8 km
>= 3000ft
5 to 8 km
1000 to 3000 ft
1500m to 5 km
500 to 1000 ft
800 to 1500m
200 to 500 ft
< 800m
< 200 ft
Symbols :   Thunderstorms  Fog  Heavy snow  Heavy precipitations  Wind > 20 kt






- Airport Elevation : 698 ft
- IATA code : BRL


KBRL - Southeast Iowa Regional

CURRENT METAR :
  • 080804Z AUTO 04008KT 3SM BR SCT005 M01/M01 A3034 RMK AO2 T10061011

EXPIRED METARs :
  • 080745Z AUTO 04007KT 3SM BR OVC004 M01/M01 A3035 RMK AO2 T10061011
  • 080734Z AUTO 04009KT 2 1/2SM BR OVC002 00/M01 A3035 RMK AO2 T00001006
  • 080726Z AUTO 05008KT 1 1/2SM BR OVC002 00/M01 A3034 RMK AO2 T00001006
  • 080701Z AUTO 05009KT 1/2SM FG VV002 00/00 A3034 RMK AO2 T00000000
  • 080653Z AUTO 04008KT 1SM BR OVC002 00/00 A3035 RMK AO2 SLP285 T00000000
  • 080630Z AUTO 04010KT 1/2SM FG VV002 01/00 A3034 RMK AO2 PRESFR T00060000
  • 080622Z AUTO 04007KT 1/4SM FG VV002 01/00 A3036 RMK AO2 T00060000
  • 080553Z AUTO 04007KT 1/4SM FG VV001 01/01 A3036 RMK AO2 SLP286 T00060006 10033 20006 400721039 55001

TAF KBRL
Valid from the 08 at 08:00 until the 09 at 06:00 UTC


080813Z 0808/0906 04008KT 3SM BR BKN005
FM081200 07005KT 5SM BR OVC006
FM081700 08007KT P6SM OVC040
FM090200 09009KT 3SM RA BR OVC006
KZAU FIR / North America



MET'MAP, your aeronautical weather chart ! - Copyright ORBIFLY December 2007 - Disclaimer

ORBIFLY MET'MAP TEAM :

Programming & Development : Alexandra Zaïnal
Original concept : Baudouin d'Aumeries
Technical & hardware support : Manuel Goepfert
Assistance : Marc-Olivier Méhu




SOURCES & CREDITS :

   NOAA       Earth
Advisory